Time;durP1;ratioP1;P1;durP2;ratioP2;P2;SDS_P1;SDS_P2;PMS_P1;PMS_P2;Temp;Humidity;BMP_temperature;BMP_pressure;BME280_temperature;BME280_humidity;BME280_pressure;Samples;Min_cycle;Max_cycle;Signal;HPM_P1;HPM_P2
2022/10/15 00:02:10;;;;;;;0.40;0.40;;;14.00;99.90;13.30;95306.00;;;;5114431;28;20194;-52
2022/10/15 00:04:37;;;;;;;0.50;0.50;;;14.00;99.90;13.40;95303.00;;;;5114422;28;20197;-52
2022/10/15 00:07:06;;;;;;;0.50;0.50;;;14.00;99.90;13.40;95306.00;;;;5114319;28;20194;-52
2022/10/15 00:09:33;;;;;;;0.40;0.40;;;14.00;99.90;13.40;95303.00;;;;5114190;28;20257;-52
2022/10/15 00:11:59;;;;;;;0.50;0.50;;;14.00;99.90;13.40;95306.00;;;;5114271;28;20208;-52
2022/10/15 00:14:26;;;;;;;0.40;0.40;;;14.00;99.90;13.50;95304.00;;;;5096146;28;20561;-53
2022/10/15 00:16:52;;;;;;;0.43;0.43;;;14.10;99.90;13.40;95310.00;;;;5113736;28;20201;-53
2022/10/15 00:19:19;;;;;;;0.60;0.60;;;14.10;99.90;13.50;95309.00;;;;5113897;28;20293;-52
2022/10/15 00:21:45;;;;;;;0.50;0.50;;;14.10;99.90;13.50;95308.00;;;;5114221;28;20189;-52
2022/10/15 00:24:11;;;;;;;0.60;0.60;;;14.10;99.90;13.50;95309.00;;;;5114171;28;20229;-52
2022/10/15 00:26:39;;;;;;;0.47;0.47;;;14.10;99.90;13.50;95317.00;;;;5113992;28;20247;-52
2022/10/15 00:29:05;;;;;;;0.53;0.53;;;14.10;99.90;13.50;95307.00;;;;5114067;28;20209;-53
2022/10/15 00:31:32;;;;;;;1.13;1.13;;;14.10;99.90;13.50;95307.00;;;;5113199;28;20322;-52
2022/10/15 00:34:01;;;;;;;0.60;0.60;;;14.20;99.90;13.50;95310.00;;;;5113938;28;20305;-52
2022/10/15 00:36:30;;;;;;;0.40;0.40;;;14.10;99.90;13.50;95310.00;;;;5096045;28;20312;-52
2022/10/15 00:38:57;;;;;;;0.50;0.50;;;14.20;99.90;13.50;95312.00;;;;5113949;28;20204;-52
2022/10/15 00:41:28;;;;;;;0.47;0.47;;;14.10;99.90;13.60;95309.00;;;;5113932;28;20201;-52
2022/10/15 00:43:57;;;;;;;0.50;0.50;;;;;13.60;95303.00;;;;5113841;28;20190;-52
2022/10/15 00:46:29;;;;;;;0.47;0.47;;;14.20;99.90;13.50;95292.00;;;;5113796;28;20202;-54
2022/10/15 00:49:03;;;;;;;0.40;0.40;;;14.20;99.90;13.60;95305.00;;;;5113802;28;20224;-52
2022/10/15 00:51:36;;;;;;;0.50;0.50;;;14.20;99.90;13.60;95273.00;;;;5095968;28;20213;-53
2022/10/15 00:54:03;;;;;;;0.40;0.40;;;14.20;99.90;13.60;95308.00;;;;5113650;28;20378;-52
2022/10/15 00:56:33;;;;;;;0.40;0.40;;;14.20;99.90;13.60;95290.00;;;;5113668;28;20200;-53
2022/10/15 00:59:02;;;;;;;0.40;0.40;;;14.20;99.90;13.60;95293.00;;;;5113643;28;20250;-53
2022/10/15 01:01:29;;;;;;;0.43;0.43;;;14.20;99.90;13.50;95297.00;;;;5113586;28;20520;-52
2022/10/15 01:03:56;;;;;;;0.40;0.40;;;14.10;99.90;13.50;95293.00;;;;5113642;28;20645;-53
2022/10/15 01:06:24;;;;;;;0.40;0.40;;;14.20;99.90;13.50;95289.00;;;;5113532;28;20296;-53
2022/10/15 01:08:51;;;;;;;0.40;0.40;;;14.10;99.90;13.60;95289.00;;;;5113534;28;20347;-52
2022/10/15 01:11:37;;;;;;;0.40;0.40;;;14.20;99.90;13.60;95290.00;;;;5095530;28;20227;-52
2022/10/15 01:14:24;;;;;;;0.40;0.40;;;14.20;99.90;13.70;95288.00;;;;5113453;28;20300;-52
2022/10/15 01:17:02;;;;;;;0.50;0.50;;;14.30;99.90;13.60;95274.00;;;;5113361;28;20231;-53
2022/10/15 01:20:17;;;;;;;0.43;0.43;;;14.30;99.90;13.60;95275.00;;;;5113395;28;20213;-52
2022/10/15 01:23:06;;;;;;;0.40;0.40;;;14.30;99.90;13.70;95256.00;;;;5055626;28;20274;-53
2022/10/15 01:25:48;;;;;;;0.50;0.50;;;14.30;99.90;13.70;95272.00;;;;5113327;28;20590;-53
2022/10/15 01:28:30;;;;;;;0.50;0.50;;;14.30;99.90;13.80;95278.00;;;;5114631;28;20221;-53
2022/10/15 01:31:05;;;;;;;0.60;0.60;;;14.40;99.90;13.80;95278.00;;;;5116818;28;20193;-53
2022/10/15 01:33:41;;;;;;;0.50;0.50;;;14.30;99.90;13.80;95274.00;;;;5116640;28;20320;-53
2022/10/15 01:36:17;;;;;;;0.40;0.40;;;14.40;99.90;13.80;95278.00;;;;5116968;28;20205;-53
2022/10/15 01:38:55;;;;;;;0.40;0.40;;;14.40;99.90;13.80;95274.00;;;;5116652;28;20656;-52
2022/10/15 01:41:31;;;;;;;0.60;0.60;;;14.40;99.90;13.80;95266.00;;;;5115748;28;20292;-53
2022/10/15 01:44:02;;;;;;;0.50;0.50;;;14.40;99.90;13.90;95273.00;;;;5116502;28;20590;-53
2022/10/15 01:46:38;;;;;;;0.60;0.60;;;14.40;99.90;13.80;95275.00;;;;5116551;28;20201;-52
2022/10/15 01:49:07;;;;;;;0.50;0.50;;;14.40;99.90;13.90;95271.00;;;;5116739;28;20652;-53
2022/10/15 01:51:37;;;;;;;0.40;0.40;;;14.50;99.90;14.00;95269.00;;;;5121001;28;20261;-52
2022/10/15 01:54:06;;;;;;;0.50;0.50;;;14.60;99.90;14.00;95269.00;;;;5116355;28;20225;-53
2022/10/15 01:56:36;;;;;;;0.40;0.40;;;14.60;99.90;14.10;95270.00;;;;5116498;28;20209;-53
2022/10/15 01:59:05;;;;;;;0.50;0.50;;;14.60;99.90;14.00;95268.00;;;;5098906;28;20212;-52
2022/10/15 02:01:33;;;;;;;0.40;0.40;;;14.60;99.90;14.00;95270.00;;;;5116206;28;20218;-52
2022/10/15 02:03:59;;;;;;;0.50;0.50;;;14.60;99.90;14.10;95280.00;;;;5116214;28;20603;-52
2022/10/15 02:06:34;;;;;;;0.90;0.80;;;14.60;99.90;14.10;95275.00;;;;5116085;28;20225;-54
2022/10/15 02:09:14;;;;;;;0.40;0.40;;;14.70;99.90;14.10;95275.00;;;;5116120;28;20641;-53
2022/10/15 02:11:59;;;;;;;0.40;0.40;;;14.60;99.90;14.10;95272.00;;;;5115913;28;20225;-53
2022/10/15 02:14:34;;;;;;;0.50;0.50;;;14.70;99.90;14.10;95264.00;;;;5115966;28;20225;-53
2022/10/15 02:17:09;;;;;;;0.50;0.50;;;14.70;99.90;14.30;95273.00;;;;5116119;28;20280;-53
2022/10/15 02:19:43;;;;;;;0.50;0.50;;;14.80;99.90;14.30;95273.00;;;;5116020;28;20213;-53
2022/10/15 02:22:18;;;;;;;0.50;0.50;;;14.90;99.90;14.40;95277.00;;;;5116027;28;20202;-52
2022/10/15 02:24:51;;;;;;;0.40;0.40;;;14.90;99.90;14.40;95274.00;;;;5117385;28;20220;-53
2022/10/15 02:27:20;;;;;;;0.40;0.40;;;14.90;99.90;14.40;95275.00;;;;5116011;28;20228;-53
2022/10/15 02:29:50;;;;;;;0.40;0.40;;;14.90;99.90;14.40;95276.00;;;;5115733;28;20221;-53
2022/10/15 02:32:20;;;;;;;0.40;0.40;;;14.90;99.90;14.30;95284.00;;;;5115699;28;20194;-52
2022/10/15 02:34:48;;;;;;;0.50;0.50;;;14.90;99.90;14.30;95281.00;;;;5115664;28;20510;-55
2022/10/15 02:37:19;;;;;;;0.37;0.37;;;14.90;99.90;14.20;95284.00;;;;5115745;28;20208;-53
2022/10/15 02:39:48;;;;;;;0.40;0.40;;;14.80;99.90;14.20;95286.00;;;;5115531;28;20290;-53
2022/10/15 02:42:16;;;;;;;0.40;0.40;;;14.80;99.90;14.20;95268.00;;;;5115796;28;20198;-53
2022/10/15 02:44:42;;;;;;;0.47;0.47;;;14.80;99.90;14.20;95278.00;;;;5115599;28;20355;-53
2022/10/15 02:47:10;;;;;;;0.50;0.50;;;14.70;99.90;14.10;95286.00;;;;5097647;28;20310;-54
2022/10/15 02:49:37;;;;;;;0.60;0.60;;;14.70;99.90;14.20;95281.00;;;;5115552;28;20216;-52
2022/10/15 02:52:04;;;;;;;0.50;0.50;;;14.80;99.90;14.20;95281.00;;;;5115450;28;20321;-53
2022/10/15 02:54:31;;;;;;;0.40;0.40;;;14.70;99.90;14.20;95282.00;;;;5115430;28;20241;-54
2022/10/15 02:56:59;;;;;;;0.50;0.50;;;14.70;99.90;14.30;95286.00;;;;5115311;28;20222;-54
2022/10/15 02:59:26;;;;;;;0.50;0.50;;;14.80;99.90;14.20;95289.00;;;;5115319;28;20194;-53
2022/10/15 03:01:53;;;;;;;0.40;0.40;;;14.80;99.90;14.20;95288.00;;;;5115401;28;20200;-53
2022/10/15 03:04:19;;;;;;;0.43;0.43;;;14.80;99.90;14.20;95291.00;;;;5097592;28;20267;-54
2022/10/15 03:06:46;;;;;;;0.50;0.50;;;14.80;99.90;14.20;95288.00;;;;5115422;28;20259;-53
2022/10/15 03:09:13;;;;;;;0.50;0.50;;;14.70;99.90;14.20;95288.00;;;;5115164;28;20783;-53
2022/10/15 03:11:39;;;;;;;0.50;0.50;;;14.70;99.90;14.10;95293.00;;;;5115159;28;20633;-53
2022/10/15 03:14:06;;;;;;;0.50;0.50;;;14.70;99.90;14.10;95290.00;;;;5114964;28;20249;-53
2022/10/15 03:16:32;;;;;;;0.40;0.40;;;14.70;99.90;14.20;95293.00;;;;5115043;28;20686;-53
2022/10/15 03:18:59;;;;;;;0.40;0.40;;;14.80;99.90;14.20;95291.00;;;;5114963;28;20222;-53
2022/10/15 03:21:27;;;;;;;0.50;0.50;;;14.80;99.90;14.20;95292.00;;;;5115004;28;20266;-53
2022/10/15 03:23:54;;;;;;;0.60;0.60;;;14.80;99.90;14.30;95297.00;;;;5115009;28;20194;-52
2022/10/15 03:26:21;;;;;;;0.50;0.50;;;14.80;99.90;14.20;95293.00;;;;5114939;28;20195;-51
2022/10/15 03:28:47;;;;;;;0.40;0.40;;;14.80;99.90;14.20;95303.00;;;;5114793;28;20189;-51
2022/10/15 03:31:13;;;;;;;0.43;0.43;;;14.80;99.90;14.30;95302.00;;;;5114788;28;20316;-51
2022/10/15 03:33:40;;;;;;;0.50;0.50;;;14.90;99.90;14.40;95310.00;;;;5114688;28;20218;-51
2022/10/15 03:36:08;;;;;;;0.47;0.47;;;15.00;99.90;14.30;95313.00;;;;5114626;28;20229;-51
2022/10/15 03:38:34;;;;;;;0.30;0.30;;;14.90;99.90;14.30;95289.00;;;;5114740;28;20190;-51
2022/10/15 03:41:04;;;;;;;0.50;0.50;;;14.90;99.90;14.30;95311.00;;;;5114636;28;20702;-52
2022/10/15 03:43:30;;;;;;;0.50;0.50;;;14.90;99.90;14.30;95322.00;;;;5114562;28;20569;-51
2022/10/15 03:46:01;;;;;;;0.30;0.30;;;14.90;99.90;14.30;95326.00;;;;5096781;28;20254;-51
2022/10/15 03:48:27;;;;;;;0.40;0.40;;;14.90;99.90;14.30;95307.00;;;;5096490;28;20225;-51
2022/10/15 03:50:54;;;;;;;0.40;0.40;;;14.90;99.90;14.30;95325.00;;;;5113725;28;20637;-52
2022/10/15 03:53:20;;;;;;;0.40;0.40;;;14.90;99.90;14.30;95324.00;;;;5114271;28;20218;-51
2022/10/15 03:55:47;;;;;;;0.40;0.40;;;14.90;99.90;14.40;95327.00;;;;5114416;28;20198;-51
2022/10/15 03:58:14;;;;;;;0.47;0.47;;;14.90;99.90;14.30;95328.00;;;;5096324;28;20296;-51
2022/10/15 04:00:41;;;;;;;0.40;0.40;;;14.80;99.90;14.40;95321.00;;;;5114464;28;20220;-51
2022/10/15 04:03:11;;;;;;;0.40;0.40;;;15.00;99.90;14.40;95323.00;;;;5114224;28;20522;-52
2022/10/15 04:05:37;;;;;;;0.50;0.50;;;15.00;99.90;14.40;95327.00;;;;5114295;28;20197;-51
2022/10/15 04:08:06;;;;;;;0.50;0.50;;;15.00;99.90;14.40;95324.00;;;;5114224;28;20676;-51
2022/10/15 04:10:33;;;;;;;0.40;0.40;;;15.00;99.90;14.40;95331.00;;;;5114145;28;20245;-51
2022/10/15 04:12:59;;;;;;;0.40;0.40;;;15.00;99.90;14.40;95332.00;;;;5114068;28;20239;-51
2022/10/15 04:15:26;;;;;;;0.50;0.50;;;15.00;99.90;14.40;95346.00;;;;5113884;28;20297;-51
2022/10/15 04:17:55;;;;;;;0.50;0.50;;;15.00;99.90;14.50;95336.00;;;;5114026;28;20198;-51
2022/10/15 04:20:24;;;;;;;0.40;0.40;;;15.00;99.90;14.40;95334.00;;;;5113956;28;20216;-51
2022/10/15 04:22:50;;;;;;;0.40;0.40;;;15.00;99.90;14.30;95331.00;;;;5114039;28;20194;-51
2022/10/15 04:25:17;;;;;;;0.40;0.40;;;14.90;99.90;14.40;95340.00;;;;5113965;28;20229;-51
2022/10/15 04:27:43;;;;;;;0.40;0.40;;;15.00;99.90;14.30;95342.00;;;;5113936;28;20632;-51
2022/10/15 04:30:12;;;;;;;0.40;0.40;;;15.00;99.90;14.40;95347.00;;;;5113981;28;20198;-51
2022/10/15 04:32:39;;;;;;;0.40;0.40;;;15.00;99.90;14.50;95349.00;;;;5113810;28;20309;-51
2022/10/15 04:35:06;;;;;;;0.40;0.40;;;15.00;99.90;14.50;95354.00;;;;5113833;28;20601;-52
2022/10/15 04:37:32;;;;;;;0.40;0.40;;;15.10;99.90;14.60;95362.00;;;;5113743;28;20225;-51
2022/10/15 04:39:59;;;;;;;0.50;0.50;;;15.10;99.90;14.50;95361.00;;;;5113897;28;20202;-51
2022/10/15 04:42:27;;;;;;;0.40;0.40;;;15.10;99.90;14.50;95360.00;;;;5113739;28;20198;-51
2022/10/15 04:44:54;;;;;;;0.40;0.40;;;15.10;99.90;14.50;95349.00;;;;5095824;28;20586;-51
2022/10/15 04:47:22;;;;;;;0.40;0.40;;;15.00;99.90;14.60;95353.00;;;;5113992;28;20272;-51
2022/10/15 04:49:49;;;;;;;0.63;0.63;;;15.10;99.90;14.50;95340.00;;;;5113652;28;20218;-51
2022/10/15 04:52:16;;;;;;;0.50;0.50;;;15.10;99.90;14.50;95345.00;;;;5113675;28;20221;-51
2022/10/15 04:54:42;;;;;;;0.50;0.50;;;15.10;99.90;14.50;95350.00;;;;5113436;28;20545;-51
2022/10/15 04:57:09;;;;;;;0.40;0.40;;;15.10;99.90;14.40;95350.00;;;;5113848;28;20278;-51
2022/10/15 04:59:35;;;;;;;0.60;0.60;;;14.90;99.90;14.40;95349.00;;;;5113581;28;20206;-51
2022/10/15 05:02:01;;;;;;;0.40;0.40;;;15.00;99.90;14.40;95350.00;;;;5113642;28;20312;-52
2022/10/15 05:04:30;;;;;;;0.50;0.50;;;14.90;99.90;14.40;95348.00;;;;5116950;28;20198;-52
2022/10/15 05:06:57;;;;;;;0.47;0.47;;;14.90;99.90;14.40;95352.00;;;;5117062;28;20313;-53
2022/10/15 05:09:24;;;;;;;0.40;0.40;;;14.90;99.90;14.30;95362.00;;;;5117004;28;20668;-51
2022/10/15 05:11:50;;;;;;;0.50;0.50;;;14.90;99.90;14.40;95368.00;;;;5117088;28;20210;-52
2022/10/15 05:14:19;;;;;;;0.53;0.53;;;14.90;99.90;14.30;95361.00;;;;5116964;28;20538;-51
2022/10/15 05:16:45;;;;;;;0.50;0.50;;;14.90;99.90;14.40;95354.00;;;;5117093;28;20216;-52
2022/10/15 05:19:15;;;;;;;0.50;0.50;;;14.90;99.90;14.30;95351.00;;;;5116808;28;20577;-52
2022/10/15 05:21:42;;;;;;;0.50;0.50;;;14.90;99.90;14.40;95357.00;;;;5116703;28;20194;-51
2022/10/15 05:24:10;;;;;;;0.40;0.40;;;14.90;99.90;14.30;95379.00;;;;5116989;28;20262;-51
2022/10/15 05:26:39;;;;;;;0.50;0.50;;;14.90;99.90;14.30;95384.00;;;;5117050;28;20195;-55
2022/10/15 05:29:05;;;;;;;0.50;0.50;;;15.00;99.90;14.40;95384.00;;;;5116771;28;20312;-62
2022/10/15 05:31:33;;;;;;;0.50;0.50;;;14.90;99.90;14.30;95383.00;;;;5116890;28;20202;-52
2022/10/15 05:34:06;;;;;;;0.60;0.60;;;;;14.30;95386.00;;;;5116589;28;20222;-51
2022/10/15 05:36:33;;;;;;;0.50;0.50;;;14.90;99.90;14.30;95388.00;;;;5116603;28;20648;-51
2022/10/15 05:39:02;;;;;;;0.40;0.40;;;14.80;99.90;14.30;95398.00;;;;5116593;28;20204;-52
2022/10/15 05:41:29;;;;;;;0.47;0.47;;;14.80;99.90;14.20;95391.00;;;;5116597;28;20198;-51
2022/10/15 05:43:58;;;;;;;0.50;0.50;;;14.80;99.90;14.30;95395.00;;;;5116384;28;20526;-52
2022/10/15 05:46:26;;;;;;;0.50;0.50;;;;;14.30;95393.00;;;;5115583;28;20232;-52
2022/10/15 05:48:56;;;;;;;0.60;0.60;;;14.80;99.90;14.20;95403.00;;;;5116476;28;20186;-52
2022/10/15 05:51:24;;;;;;;0.47;0.47;;;14.80;99.90;14.20;95365.00;;;;5115426;28;20221;-55
2022/10/15 05:53:52;;;;;;;0.50;0.50;;;14.80;99.90;14.10;95406.00;;;;5116296;28;20823;-52
2022/10/15 05:56:18;;;;;;;0.43;0.43;;;14.80;99.90;14.20;95398.00;;;;5116251;28;20225;-52
2022/10/15 05:58:48;;;;;;;0.40;0.40;;;14.70;99.90;14.10;95407.00;;;;5116341;28;20554;-52
2022/10/15 06:01:16;;;;;;;0.40;0.40;;;14.70;99.90;14.10;95409.00;;;;5116353;28;20220;-54
2022/10/15 06:03:45;;;;;;;0.60;0.60;;;14.70;99.90;14.20;95406.00;;;;5116439;28;20202;-56
2022/10/15 06:06:18;;;;;;;0.50;0.50;;;14.70;99.90;14.20;95410.00;;;;5116367;28;20198;-52
2022/10/15 06:08:48;;;;;;;0.50;0.50;;;14.80;99.90;14.00;95411.00;;;;5116180;28;20218;-53
2022/10/15 06:11:15;;;;;;;0.50;0.50;;;14.60;99.90;14.00;95409.00;;;;5116172;28;20206;-54
2022/10/15 06:13:43;;;;;;;0.40;0.40;;;14.60;99.90;13.90;95411.00;;;;5115484;28;20229;-53
2022/10/15 06:16:11;;;;;;;0.40;0.40;;;14.60;99.90;13.90;95400.00;;;;5116184;28;20205;-54
2022/10/15 06:18:38;;;;;;;0.60;0.60;;;14.50;99.90;14.00;95426.00;;;;5115843;28;20270;-53
2022/10/15 06:21:06;;;;;;;0.40;0.40;;;14.60;99.90;14.00;95440.00;;;;5116201;28;20198;-53
2022/10/15 06:23:34;;;;;;;0.40;0.40;;;14.60;99.90;14.10;95436.00;;;;5116215;28;20197;-52
2022/10/15 06:26:02;;;;;;;0.40;0.40;;;14.60;99.90;14.30;95417.00;;;;5116155;28;20190;-53
2022/10/15 06:28:29;;;;;;;0.60;0.60;;;14.80;99.90;14.20;95434.00;;;;5116199;28;20229;-53
2022/10/15 06:30:59;;;;;;;0.70;0.70;;;14.70;99.90;14.10;95434.00;;;;5116071;28;20672;-52
2022/10/15 06:33:28;;;;;;;0.40;0.40;;;14.70;99.90;14.20;95452.00;;;;5115883;28;20655;-54
2022/10/15 06:35:59;;;;;;;0.50;0.50;;;14.80;99.90;14.20;95447.00;;;;5115851;28;20247;-52
2022/10/15 06:38:26;;;;;;;0.60;0.60;;;14.80;99.90;14.30;95450.00;;;;5115747;28;20350;-53
2022/10/15 06:40:52;;;;;;;0.40;0.40;;;14.80;99.90;14.30;95464.00;;;;5115593;28;20194;-53
2022/10/15 06:43:19;;;;;;;0.40;0.40;;;14.80;99.90;14.40;95463.00;;;;5115652;28;20652;-52
2022/10/15 06:45:45;;;;;;;0.47;0.47;;;14.90;99.40;14.30;95468.00;;;;5115605;28;20216;-53
2022/10/15 06:48:11;;;;;;;0.50;0.50;;;14.90;99.10;14.30;95458.00;;;;5115684;28;20664;-55
2022/10/15 06:50:39;;;;;;;0.43;0.43;;;14.90;99.40;14.30;95467.00;;;;5115570;28;20570;-53
2022/10/15 06:53:07;;;;;;;0.50;0.50;;;14.80;99.60;14.30;95479.00;;;;5097285;28;20613;-54
2022/10/15 06:55:34;;;;;;;0.50;0.50;;;14.80;99.60;14.30;95485.00;;;;5115445;28;20284;-53
2022/10/15 06:58:00;;;;;;;0.50;0.50;;;14.80;99.90;14.30;95481.00;;;;5115402;28;20278;-53
2022/10/15 07:00:27;;;;;;;0.60;0.60;;;14.80;99.90;14.30;95483.00;;;;5115353;28;20646;-55
2022/10/15 07:02:53;;;;;;;0.50;0.50;;;14.80;99.90;14.00;95488.00;;;;5097571;28;20538;-52
2022/10/15 07:05:20;;;;;;;0.60;0.60;;;14.60;99.90;13.90;95486.00;;;;5115251;28;20629;-53
2022/10/15 07:07:51;;;;;;;0.60;0.60;;;14.60;99.90;14.00;95499.00;;;;5115273;28;20189;-53
2022/10/15 07:10:18;;;;;;;0.60;0.60;;;14.60;99.90;13.90;95505.00;;;;5115136;28;20214;-52
2022/10/15 07:12:44;;;;;;;0.60;0.60;;;14.50;99.90;13.90;95505.00;;;;5115053;28;20532;-52
2022/10/15 07:15:11;;;;;;;0.50;0.50;;;14.50;99.90;14.00;95515.00;;;;5115221;28;20226;-55
2022/10/15 07:17:38;;;;;;;0.60;0.60;;;14.50;99.90;14.10;95511.00;;;;5114990;28;20210;-52
2022/10/15 07:20:08;;;;;;;0.50;0.50;;;14.60;99.90;14.20;95505.00;;;;5114999;28;20198;-54
2022/10/15 07:22:34;;;;;;;0.40;0.40;;;14.70;99.90;14.10;95507.00;;;;5097132;28;20570;-54
2022/10/15 07:25:02;;;;;;;0.40;0.40;;;14.70;99.90;14.20;95517.00;;;;5114255;28;20693;-52
2022/10/15 07:27:28;;;;;;;0.50;0.50;;;14.80;99.90;14.10;95520.00;;;;5114618;28;20201;-52
2022/10/15 07:29:54;;;;;;;0.50;0.50;;;14.60;99.90;14.20;95514.00;;;;5114979;28;20206;-53
2022/10/15 07:32:21;;;;;;;0.90;0.90;;;14.70;99.90;13.90;95521.00;;;;5114707;28;20236;-53
2022/10/15 07:34:47;;;;;;;0.50;0.50;;;14.50;99.90;13.90;95523.00;;;;5114817;28;20218;-53
2022/10/15 07:37:14;;;;;;;0.57;0.57;;;14.50;99.90;13.90;95515.00;;;;5114845;28;20253;-53
2022/10/15 07:39:40;;;;;;;0.60;0.60;;;14.50;99.90;14.00;95517.00;;;;5114798;28;20293;-53
2022/10/15 07:42:08;;;;;;;0.80;0.80;;;14.50;99.90;14.00;95520.00;;;;5114591;28;20190;-54
2022/10/15 07:44:34;;;;;;;0.50;0.50;;;14.50;99.90;13.90;95515.00;;;;5114691;28;20200;-52
2022/10/15 07:47:00;;;;;;;0.50;0.50;;;14.50;99.90;14.00;95521.00;;;;5096746;28;20271;-52
2022/10/15 07:49:27;;;;;;;0.50;0.50;;;14.60;99.90;14.10;95512.00;;;;5114522;28;20304;-55
2022/10/15 07:51:53;;;;;;;0.40;0.40;;;14.70;99.90;14.40;95518.00;;;;5114561;28;20571;-54
2022/10/15 07:54:20;;;;;;;0.60;0.60;;;14.80;99.90;14.50;95519.00;;;;5114361;28;20553;-53
2022/10/15 07:56:50;;;;;;;0.40;0.40;;;15.00;99.90;14.60;95511.00;;;;5114624;28;20537;-53
2022/10/15 07:59:17;;;;;;;0.60;0.60;;;15.00;99.90;14.60;95533.00;;;;5114404;28;20202;-52
2022/10/15 08:01:43;;;;;;;0.47;0.47;;;15.00;99.90;14.70;95527.00;;;;5114413;28;20625;-54
2022/10/15 08:04:10;;;;;;;0.43;0.43;;;15.20;99.90;14.80;95518.00;;;;5114439;28;20210;-52
2022/10/15 08:06:36;;;;;;;0.40;0.40;;;15.30;99.90;14.90;95516.00;;;;5114308;28;20243;-52
2022/10/15 08:09:04;;;;;;;0.50;0.50;;;15.40;99.90;15.10;95514.00;;;;5114337;28;20273;-53
2022/10/15 08:11:30;;;;;;;0.50;0.50;;;15.60;99.90;15.00;95525.00;;;;5114098;28;20224;-54
2022/10/15 08:13:57;;;;;;;0.80;0.80;;;15.60;99.90;15.10;95521.00;;;;5114122;28;20514;-53
2022/10/15 08:16:24;;;;;;;0.30;0.30;;;15.50;99.90;14.80;95524.00;;;;5097023;28;20204;-53
2022/10/15 08:18:51;;;;;;;0.63;0.63;;;15.40;99.90;14.90;95525.00;;;;5100729;28;20226;-54
2022/10/15 08:21:17;;;;;;;0.60;0.60;;;15.50;99.90;14.90;95516.00;;;;5114172;28;20206;-52
2022/10/15 08:23:46;;;;;;;0.40;0.40;;;15.40;99.90;15.00;95514.00;;;;5114266;28;20266;-54
2022/10/15 08:26:13;;;;;;;0.50;0.50;;;15.60;99.90;15.10;95516.00;;;;5114093;28;20497;-53
2022/10/15 08:28:39;;;;;;;0.40;0.40;;;15.60;99.90;15.00;95522.00;;;;5113885;28;20221;-53
2022/10/15 08:31:06;;;;;;;0.40;0.40;;;15.60;99.90;15.00;95528.00;;;;5113855;28;20339;-53
2022/10/15 08:33:36;;;;;;;1.03;1.03;;;15.60;99.90;15.00;95534.00;;;;5113558;28;20529;-53
2022/10/15 08:36:05;;;;;;;0.40;0.40;;;15.60;99.90;14.70;95535.00;;;;5113709;28;20276;-52
2022/10/15 08:38:32;;;;;;;2.23;1.47;;;15.30;99.90;14.80;95524.00;;;;5113433;28;20280;-54
2022/10/15 08:41:04;;;;;;;0.33;0.33;;;15.30;99.90;14.90;95538.00;;;;5113815;28;20197;-53
2022/10/15 08:43:37;;;;;;;0.50;0.50;;;15.40;99.90;14.70;95535.00;;;;5113970;28;20322;-53
2022/10/15 08:46:10;;;;;;;0.40;0.40;;;15.40;99.90;14.70;95542.00;;;;5114014;28;20208;-55
2022/10/15 08:48:43;;;;;;;0.50;0.50;;;15.30;99.90;14.60;95547.00;;;;5114060;28;20277;-52
2022/10/15 08:51:16;;;;;;;0.50;0.50;;;15.20;99.90;14.50;95553.00;;;;5113855;28;20229;-54
2022/10/15 08:53:50;;;;;;;0.50;0.50;;;15.10;99.90;14.50;95552.00;;;;5113779;28;20301;-53
2022/10/15 08:56:21;;;;;;;0.70;0.70;;;15.10;99.90;14.70;95553.00;;;;5113668;28;20225;-52
2022/10/15 08:59:00;;;;;;;0.50;0.50;;;15.20;99.90;14.60;95561.00;;;;5113707;28;20198;-54
2022/10/15 09:01:31;;;;;;;0.40;0.40;;;;;14.50;95562.00;;;;5113550;28;20667;-52
2022/10/15 09:04:16;;;;;;;0.50;0.50;;;15.10;99.90;14.60;95562.00;;;;5113612;28;20201;-53
2022/10/15 09:06:43;;;;;;;0.50;0.50;;;15.20;99.90;14.70;95567.00;;;;5113553;28;20218;-53
2022/10/15 09:09:24;;;;;;;0.50;0.50;;;15.20;99.90;14.80;95548.00;;;;5113585;28;20189;-53
2022/10/15 09:12:02;;;;;;;0.50;0.50;;;15.30;99.90;15.00;95564.00;;;;5113421;28;20213;-52
2022/10/15 09:14:34;;;;;;;0.50;0.50;;;15.50;99.90;15.10;95556.00;;;;5095439;28;20308;-54
2022/10/15 09:17:13;;;;;;;1.17;1.17;;;15.60;99.90;15.20;95565.00;;;;5113284;28;20304;-53
2022/10/15 09:19:44;;;;;;;0.47;0.47;;;15.70;99.90;15.40;95562.00;;;;5112628;28;20194;-53
2022/10/15 09:22:16;;;;;;;0.50;0.50;;;16.00;99.90;15.40;95560.00;;;;5113287;28;20782;-53
2022/10/15 09:24:42;;;;;;;0.50;0.50;;;15.90;99.90;15.50;95555.00;;;;5096206;28;20273;-53
2022/10/15 09:27:21;;;;;;;0.60;0.60;;;16.00;99.90;15.60;95569.00;;;;5113119;28;20218;-52
2022/10/15 09:29:59;;;;;;;0.90;0.90;;;16.10;99.90;15.70;95564.00;;;;5113324;28;20226;-53
2022/10/15 09:32:35;;;;;;;0.60;0.60;;;16.20;99.90;15.90;95559.00;;;;5113154;28;20262;-53
2022/10/15 09:35:17;;;;;;;0.60;0.60;;;16.20;99.60;15.70;95566.00;;;;5113056;28;20278;-52
2022/10/15 09:37:54;;;;;;;0.60;0.60;;;16.20;99.90;16.10;95572.00;;;;5113159;28;20283;-54
2022/10/15 09:40:43;;;;;;;0.70;0.70;;;16.30;99.90;15.70;95586.00;;;;5095157;28;20218;-53
2022/10/15 09:43:12;;;;;;;0.90;0.90;;;16.10;99.50;15.80;95561.00;;;;5113016;28;20241;-57
2022/10/15 09:45:39;;;;;;;0.40;0.40;;;16.20;97.40;15.60;95570.00;;;;5095159;28;20202;-52
2022/10/15 09:48:14;;;;;;;0.43;0.43;;;;;15.90;95572.00;;;;5095146;28;20348;-55
2022/10/15 09:50:49;;;;;;;0.40;0.40;;;16.30;98.60;15.90;95573.00;;;;5116567;28;20209;-52
2022/10/15 09:53:27;;;;;;;0.73;0.73;;;16.40;97.80;15.90;95568.00;;;;5116571;28;20225;-53
2022/10/15 09:56:07;;;;;;;1.07;1.03;;;16.30;96.80;15.50;95576.00;;;;5116347;28;20255;-53
2022/10/15 09:58:43;;;;;;;0.50;0.50;;;16.10;97.40;15.70;95578.00;;;;5116376;28;20228;-52
2022/10/15 10:01:18;;;;;;;0.50;0.50;;;16.30;96.50;15.80;95572.00;;;;5116288;28;20541;-54
2022/10/15 10:03:46;;;;;;;0.60;0.60;;;16.30;95.80;15.90;95567.00;;;;5116049;28;20217;-53
2022/10/15 10:06:15;;;;;;;0.90;0.90;;;16.30;97.80;16.50;95576.00;;;;5116027;28;20242;-52
2022/10/15 10:08:51;;;;;;;0.50;0.50;;;16.80;95.90;16.40;95584.00;;;;5116114;28;20285;-52
2022/10/15 10:11:19;;;;;;;0.67;0.67;;;16.90;94.10;16.20;95581.00;;;;5116305;28;20216;-52
2022/10/15 10:13:53;;;;;;;0.40;0.40;;;16.70;93.90;16.50;95583.00;;;;5116034;28;20268;-52
2022/10/15 10:16:23;;;;;;;0.57;0.57;;;16.90;94.00;16.80;95564.00;;;;5116189;28;20209;-52
2022/10/15 10:19:10;;;;;;;0.60;0.60;;;17.10;93.80;17.00;95579.00;;;;5116019;28;20309;-53
2022/10/15 10:21:41;;;;;;;0.47;0.47;;;17.40;91.20;17.10;95564.00;;;;5116105;28;20194;-53
2022/10/15 10:24:27;;;;;;;0.93;0.93;;;;;17.60;95586.00;;;;5115814;28;20234;-52
2022/10/15 10:26:54;;;;;;;0.60;0.60;;;;;17.80;95573.00;;;;5115826;28;20198;-53
2022/10/15 10:29:23;;;;;;;0.50;0.50;;;17.90;99.90;18.10;95603.00;;;;5115732;28;20214;-52
2022/10/15 10:31:51;;;;;;;0.30;0.30;;;;;17.30;95601.00;;;;5115855;28;20208;-53
2022/10/15 10:34:26;;;;;;;0.50;0.50;;;17.70;99.90;16.90;95600.00;;;;5115641;28;20263;-52
2022/10/15 10:36:55;;;;;;;0.60;0.60;;;17.20;85.80;16.40;95629.00;;;;5115934;28;20189;-54
2022/10/15 10:39:26;;;;;;;0.40;0.40;;;;;16.30;95616.00;;;;5115979;28;20253;-58
2022/10/15 10:41:59;;;;;;;0.40;0.40;;;16.90;88.50;16.20;95604.00;;;;5115796;28;20190;-54
2022/10/15 10:44:29;;;;;;;0.70;0.70;;;16.80;89.30;16.20;95604.00;;;;5115605;28;20653;-54
2022/10/15 10:47:16;;;;;;;0.47;0.47;;;16.60;90.00;16.30;95602.00;;;;5115630;28;20198;-53
2022/10/15 10:49:48;;;;;;;0.53;0.53;;;16.80;91.00;16.30;95598.00;;;;5115574;28;20279;-53
2022/10/15 10:52:27;;;;;;;0.80;0.80;;;16.80;90.20;16.20;95616.00;;;;5115543;28;20258;-54
2022/10/15 10:55:01;;;;;;;0.73;0.73;;;16.70;90.20;16.30;95618.00;;;;5115402;28;20313;-54
2022/10/15 10:57:41;;;;;;;0.60;0.60;;;16.90;89.30;16.20;95610.00;;;;5097547;28;20236;-52
2022/10/15 11:00:14;;;;;;;1.03;1.03;;;16.70;90.30;16.10;95608.00;;;;5115328;28;20655;-51
2022/10/15 11:02:42;;;;;;;0.37;0.37;;;16.70;89.50;16.20;95608.00;;;;5115236;28;20573;-52
2022/10/15 11:05:10;;;;;;;0.70;0.70;;;16.70;89.30;16.30;95616.00;;;;5115156;28;20202;-52
2022/10/15 11:07:50;;;;;;;0.50;0.50;;;16.80;89.90;16.40;95604.00;;;;5115072;28;20313;-51
2022/10/15 11:10:24;;;;;;;0.60;0.60;;;16.80;90.40;16.50;95596.00;;;;5114141;28;20304;-52